createdAt,value
2019-05-11T00:00:50.295Z,96.7
2019-05-11T00:02:50.318Z,97.2
2019-05-11T00:04:50.662Z,97.9
2019-05-11T00:06:49.864Z,98.7
2019-05-11T00:08:49.903Z,98.7
2019-05-11T00:10:50.083Z,97.4
2019-05-11T00:12:50.105Z,98.4
2019-05-11T00:14:50.140Z,98.3
2019-05-11T00:16:50.359Z,98.1
2019-05-11T00:18:50.467Z,97.6
2019-05-11T00:20:50.486Z,96.9
2019-05-11T00:22:50.685Z,96.6
2019-05-11T00:24:50.741Z,96.3
2019-05-11T00:26:49.936Z,96.5
2019-05-11T00:28:50.040Z,97.2
2019-05-11T00:30:49.994Z,97.1
2019-05-11T00:32:50.017Z,97.1
2019-05-11T00:34:50.335Z,96.4
2019-05-11T00:36:50.341Z,96.8
2019-05-11T00:38:50.466Z,96.8
2019-05-11T00:40:50.561Z,95.3
2019-05-11T00:42:50.574Z,95.7
2019-05-11T00:44:50.700Z,95.5
2019-05-11T00:46:49.852Z,96.1
2019-05-11T00:48:49.843Z,95.4
2019-05-11T00:50:49.912Z,96.1
2019-05-11T00:52:49.951Z,95.7
2019-05-11T00:54:50.096Z,95.5
2019-05-11T00:56:50.244Z,96.0
2019-05-11T00:58:51.408Z,96.2
2019-05-11T01:00:50.475Z,97.2
2019-05-11T01:02:50.594Z,97.3
2019-05-11T01:04:50.090Z,97.0
2019-05-11T01:06:50.330Z,97.0
2019-05-11T01:08:50.467Z,96.8
2019-05-11T01:10:50.522Z,96.9
2019-05-11T01:12:50.559Z,98.5
2019-05-11T01:14:50.569Z,98.5
2019-05-11T01:16:49.830Z,98.6
2019-05-11T01:18:49.976Z,99.2
2019-05-11T01:20:50.013Z,99.1
2019-05-11T01:22:50.190Z,98.9
2019-05-11T01:24:50.272Z,99.8
2019-05-11T01:26:50.556Z,99.9
2019-05-11T01:28:50.684Z,99.9
2019-05-11T01:30:50.692Z,100.0
2019-05-11T01:32:50.753Z,100.0
2019-05-11T01:34:50.025Z,100.0
2019-05-11T01:36:50.218Z,100.0
2019-05-11T01:38:50.310Z,100.0
2019-05-11T01:40:59.639Z,100.0
2019-05-11T01:42:50.755Z,100.0
2019-05-11T01:44:50.743Z,100.0
2019-05-11T01:46:49.930Z,100.0
2019-05-11T01:48:49.900Z,100.0
2019-05-11T01:50:50.086Z,100.0
2019-05-11T01:52:50.176Z,100.0
2019-05-11T01:54:50.266Z,100.0
2019-05-11T01:56:50.424Z,100.0
2019-05-11T01:58:50.453Z,100.0
2019-05-11T02:00:50.457Z,100.0
2019-05-11T02:02:50.614Z,100.0
2019-05-11T02:04:49.924Z,100.0
2019-05-11T02:06:50.058Z,100.0
2019-05-11T02:08:50.351Z,100.0
2019-05-11T02:10:50.400Z,100.0
2019-05-11T02:12:50.439Z,100.0
2019-05-11T02:14:50.481Z,100.0
2019-05-11T02:16:50.561Z,100.0
2019-05-11T02:18:50.521Z,100.0
2019-05-11T02:20:50.585Z,100.0
2019-05-11T02:22:50.547Z,100.0
2019-05-11T02:24:50.622Z,100.0
2019-05-11T02:26:49.845Z,100.0
2019-05-11T02:28:49.907Z,100.0
2019-05-11T02:30:49.926Z,100.0
2019-05-11T02:32:49.915Z,100.0
2019-05-11T02:34:50.366Z,100.0
2019-05-11T02:36:50.542Z,100.0
2019-05-11T02:38:50.586Z,100.0
2019-05-11T02:40:50.666Z,100.0
2019-05-11T02:42:50.790Z,100.0
2019-05-11T02:44:49.963Z,100.0
2019-05-11T02:46:50.184Z,100.0
2019-05-11T02:48:50.205Z,100.0
2019-05-11T02:50:50.273Z,100.0
2019-05-11T02:52:50.341Z,100.0
2019-05-11T02:54:50.434Z,100.0
2019-05-11T02:56:50.698Z,100.0
2019-05-11T02:58:50.700Z,100.0
2019-05-11T03:00:50.717Z,100.0
2019-05-11T03:02:49.803Z,100.0
2019-05-11T03:04:50.215Z,100.0
2019-05-11T03:06:50.357Z,100.0
2019-05-11T03:08:50.478Z,100.0
2019-05-11T03:10:50.496Z,100.0
2019-05-11T03:12:50.514Z,100.0
2019-05-11T03:14:50.504Z,100.0
2019-05-11T03:16:50.678Z,100.0
2019-05-11T03:18:50.804Z,100.0
2019-05-11T03:20:50.762Z,100.0
2019-05-11T03:22:49.787Z,100.0
2019-05-11T03:24:49.894Z,100.0
2019-05-11T03:26:50.084Z,100.0
2019-05-11T03:28:50.169Z,100.0
2019-05-11T03:30:50.141Z,100.0
2019-05-11T03:32:50.356Z,100.0
2019-05-11T03:34:50.006Z,100.0
2019-05-11T03:36:50.230Z,100.0
2019-05-11T03:38:50.204Z,100.0
2019-05-11T03:40:50.158Z,100.0
2019-05-11T03:42:50.172Z,100.0
2019-05-11T03:44:50.178Z,100.0
2019-05-11T03:46:50.331Z,100.0
2019-05-11T03:48:50.271Z,100.0
2019-05-11T03:50:50.292Z,100.0
2019-05-11T03:52:50.277Z,100.0
2019-05-11T03:54:50.463Z,100.0
2019-05-11T03:56:50.663Z,100.0
2019-05-11T03:58:50.677Z,100.0
2019-05-11T04:00:50.729Z,100.0
2019-05-11T04:02:50.690Z,100.0
2019-05-11T04:04:50.009Z,100.0
2019-05-11T04:06:50.188Z,100.0
2019-05-11T04:08:50.280Z,100.0
2019-05-11T04:10:50.332Z,100.0
2019-05-11T04:12:50.410Z,100.0
2019-05-11T04:14:50.577Z,100.0
2019-05-11T04:16:49.810Z,100.0
2019-05-11T04:18:50.003Z,100.0
2019-05-11T04:20:50.009Z,100.0
2019-05-11T04:22:50.023Z,100.0
2019-05-11T04:24:50.019Z,100.0
2019-05-11T04:26:50.758Z,100.0
2019-05-11T04:28:49.840Z,100.0
2019-05-11T04:30:50.816Z,100.0
2019-05-11T04:32:50.058Z,100.0
2019-05-11T04:34:50.545Z,100.0
2019-05-11T04:36:49.866Z,100.0
2019-05-11T04:38:49.887Z,100.0
2019-05-11T04:40:49.927Z,100.0
2019-05-11T04:42:56.842Z,100.0
2019-05-11T04:44:53.238Z,100.0
2019-05-11T04:46:50.475Z,100.0
2019-05-11T04:48:50.564Z,100.0
2019-05-11T04:50:50.595Z,100.0
2019-05-11T04:52:50.687Z,100.0
2019-05-11T04:54:50.659Z,100.0
2019-05-11T04:56:49.907Z,100.0
2019-05-11T04:58:49.954Z,100.0
2019-05-11T05:00:50.080Z,100.0
2019-05-11T05:02:50.077Z,100.0
2019-05-11T05:04:50.467Z,100.0
2019-05-11T05:07:12.298Z,100.0
2019-05-11T05:08:50.105Z,100.0
2019-05-11T05:11:00.966Z,100.0
2019-05-11T05:13:11.110Z,100.0
2019-05-11T05:14:49.948Z,100.0
2019-05-11T05:16:50.133Z,100.0
2019-05-11T05:18:50.111Z,100.0
2019-05-11T05:20:50.248Z,100.0
2019-05-11T05:22:50.318Z,100.0
2019-05-11T05:24:50.499Z,100.0
2019-05-11T05:26:50.547Z,100.0
2019-05-11T05:28:50.661Z,100.0
2019-05-11T05:30:49.747Z,100.0
2019-05-11T05:32:49.769Z,100.0
2019-05-11T05:34:50.297Z,100.0
2019-05-11T05:36:49.964Z,100.0
2019-05-11T05:38:49.987Z,100.0
2019-05-11T05:40:50.039Z,100.0
2019-05-11T05:42:50.009Z,100.0
2019-05-11T05:44:50.056Z,100.0
2019-05-11T05:46:50.289Z,100.0
2019-05-11T05:48:50.410Z,100.0
2019-05-11T05:50:50.433Z,100.0
2019-05-11T05:52:50.517Z,100.0
2019-05-11T05:54:50.536Z,100.0
2019-05-11T05:56:50.632Z,100.0
2019-05-11T05:58:50.718Z,100.0
2019-05-11T06:00:50.752Z,100.0
2019-05-11T06:02:50.822Z,100.0
2019-05-11T06:04:50.267Z,100.0
2019-05-11T06:06:50.399Z,100.0
2019-05-11T06:08:50.389Z,100.0
2019-05-11T06:10:50.544Z,100.0
2019-05-11T06:12:50.546Z,100.0
2019-05-11T06:14:50.493Z,100.0
2019-05-11T06:16:50.673Z,100.0
2019-05-11T06:18:49.772Z,100.0
2019-05-11T06:20:50.734Z,100.0
2019-05-11T06:22:49.862Z,100.0
2019-05-11T06:24:49.869Z,100.0
2019-05-11T06:26:50.003Z,100.0
2019-05-11T06:28:50.139Z,100.0
2019-05-11T06:30:50.258Z,100.0
2019-05-11T06:32:50.280Z,100.0
2019-05-11T06:34:50.731Z,100.0
2019-05-11T06:36:49.899Z,100.0
2019-05-11T06:38:49.955Z,100.0
2019-05-11T06:40:49.919Z,100.0
2019-05-11T06:42:49.958Z,100.0
2019-05-11T06:44:49.978Z,100.0
2019-05-11T06:46:50.197Z,100.0
2019-05-11T06:48:50.215Z,100.0
2019-05-11T06:50:50.334Z,100.0
2019-05-11T06:52:50.507Z,100.0
2019-05-11T06:54:50.577Z,100.0
2019-05-11T06:56:50.732Z,100.0
2019-05-11T06:58:50.800Z,100.0
2019-05-11T07:00:49.938Z,100.0
2019-05-11T07:02:49.952Z,100.0
2019-05-11T07:04:50.397Z,100.0
2019-05-11T07:06:50.792Z,100.0
2019-05-11T07:08:50.801Z,100.0
2019-05-11T07:10:49.935Z,100.0
2019-05-11T07:12:49.976Z,100.0
2019-05-11T07:14:50.026Z,100.0
2019-05-11T07:16:50.188Z,100.0
2019-05-11T07:18:50.197Z,100.0
2019-05-11T07:20:51.537Z,100.0
2019-05-11T07:22:50.566Z,100.0
2019-05-11T07:24:50.720Z,100.0
2019-05-11T07:26:49.828Z,100.0
2019-05-11T07:28:49.786Z,100.0
2019-05-11T07:30:50.759Z,100.0
2019-05-11T07:32:49.826Z,100.0
2019-05-11T07:34:50.212Z,100.0
2019-05-11T07:36:50.430Z,100.0
2019-05-11T07:38:50.436Z,100.0
2019-05-11T07:40:50.446Z,98.7
2019-05-11T07:42:50.516Z,98.2
2019-05-11T07:44:50.530Z,97.5
2019-05-11T07:46:50.649Z,96.1
2019-05-11T07:48:50.603Z,96.6
2019-05-11T07:50:50.723Z,95.5
2019-05-11T07:52:50.637Z,91.7
2019-05-11T07:54:53.451Z,89.6
2019-05-11T07:56:50.706Z,89.4
2019-05-11T07:58:49.810Z,88.3
2019-05-11T08:00:49.783Z,87.3
2019-05-11T08:02:49.894Z,86.3
2019-05-11T08:04:50.351Z,87.2
2019-05-11T08:06:50.566Z,86.2
2019-05-11T08:08:50.575Z,88.5
2019-05-11T08:10:50.628Z,89.6
2019-05-11T08:12:50.733Z,90.1
2019-05-11T08:15:14.022Z,90.7
2019-05-11T08:16:49.881Z,90.7
2019-05-11T08:18:49.844Z,90.4
2019-05-11T08:20:49.939Z,89.5
2019-05-11T08:22:49.943Z,86.7
2019-05-11T08:24:50.026Z,88.3
2019-05-11T08:26:50.181Z,86.2
2019-05-11T08:28:50.153Z,84.8
2019-05-11T08:30:50.162Z,85.3
2019-05-11T08:32:50.197Z,85.7
2019-05-11T08:34:50.493Z,85.3
2019-05-11T08:36:50.577Z,86.7
2019-05-11T08:38:50.546Z,86.0
2019-05-11T08:40:50.513Z,83.8
2019-05-11T08:42:50.576Z,83.8
2019-05-11T08:44:50.547Z,82.0
2019-05-11T08:46:50.691Z,83.8
2019-05-11T08:48:49.806Z,83.8
2019-05-11T08:50:50.755Z,82.4
2019-05-11T08:52:49.897Z,82.9
2019-05-11T08:54:49.891Z,83.7
2019-05-11T08:56:50.052Z,82.7
2019-05-11T08:58:50.133Z,82.0
2019-05-11T09:00:50.152Z,81.7
2019-05-11T09:02:51.573Z,80.0
2019-05-11T09:04:49.945Z,78.6
2019-05-11T09:06:50.116Z,77.1
2019-05-11T09:08:50.222Z,76.1
2019-05-11T09:10:50.211Z,76.2
2019-05-11T09:12:50.251Z,77.6
2019-05-11T09:14:50.341Z,77.3
2019-05-11T09:16:50.444Z,77.0
2019-05-11T09:18:50.512Z,74.2
2019-05-11T09:20:50.534Z,74.2
2019-05-11T09:22:50.481Z,74.1
2019-05-11T09:24:50.479Z,75.0
2019-05-11T09:26:50.692Z,73.5
2019-05-11T09:28:50.635Z,72.5
2019-05-11T09:30:50.715Z,72.4
2019-05-11T09:32:49.806Z,70.6
2019-05-11T09:34:50.209Z,72.5
2019-05-11T09:36:50.266Z,70.1
2019-05-11T09:38:50.381Z,70.5
2019-05-11T09:40:50.443Z,73.5
2019-05-11T09:42:50.550Z,72.7
2019-05-11T09:44:50.530Z,71.3
2019-05-11T09:46:50.621Z,73.2
2019-05-11T09:48:50.717Z,74.1
2019-05-11T09:50:50.698Z,75.8
2019-05-11T09:52:50.774Z,76.0
2019-05-11T09:54:49.838Z,74.7
2019-05-11T09:56:50.130Z,74.7
2019-05-11T09:58:50.150Z,77.6
2019-05-11T10:00:50.210Z,79.3
2019-05-11T10:02:50.218Z,78.6
2019-05-11T10:04:50.463Z,80.3
2019-05-11T10:06:50.527Z,79.4
2019-05-11T10:08:50.559Z,80.3
2019-05-11T10:10:50.648Z,79.5
2019-05-11T10:12:53.384Z,81.1
2019-05-11T10:14:50.437Z,85.6
2019-05-11T10:16:50.636Z,89.4
2019-05-11T10:18:50.738Z,93.8
2019-05-11T10:20:49.823Z,99.8
2019-05-11T10:22:49.877Z,100.0
2019-05-11T10:24:49.973Z,100.0
2019-05-11T10:26:50.235Z,100.0
2019-05-11T10:28:50.310Z,100.0
2019-05-11T10:30:50.350Z,100.0
2019-05-11T10:32:50.382Z,100.0
2019-05-11T10:34:49.933Z,100.0
2019-05-11T10:36:50.148Z,100.0
2019-05-11T10:38:50.160Z,99.4
2019-05-11T10:40:50.155Z,98.8
2019-05-11T10:42:50.261Z,99.3
2019-05-11T10:44:50.264Z,98.5
2019-05-11T10:46:50.338Z,97.8
2019-05-11T10:48:50.367Z,96.3
2019-05-11T10:50:50.432Z,93.5
2019-05-11T10:52:50.466Z,76
2019-05-11T10:54:50.461Z,76
2019-05-11T10:56:50.601Z,77
2019-05-11T10:58:50.701Z,77
2019-05-11T11:00:49.807Z,78
2019-05-11T11:02:50.746Z,77
2019-05-11T11:04:50.234Z,78
2019-05-11T11:06:50.393Z,77
2019-05-11T11:08:50.417Z,77
2019-05-11T11:10:50.467Z,77
2019-05-11T11:12:50.494Z,76
2019-05-11T11:14:50.487Z,76
2019-05-11T11:16:50.725Z,76
2019-05-11T11:18:50.650Z,76
2019-05-11T11:20:50.642Z,76
2019-05-11T11:22:50.727Z,75
2019-05-11T11:24:50.696Z,75
2019-05-11T11:26:49.964Z,75
2019-05-11T11:28:49.893Z,74
2019-05-11T11:30:50.046Z,74
2019-05-11T11:32:50.148Z,74
2019-05-11T11:34:50.561Z,74
2019-05-11T11:36:49.823Z,74
2019-05-11T11:38:49.874Z,74
2019-05-11T11:40:49.866Z,73
2019-05-11T11:42:49.935Z,72
2019-05-11T11:44:50.041Z,72
2019-05-11T11:46:59.449Z,72
2019-05-11T11:48:50.455Z,72
2019-05-11T11:50:50.453Z,72
2019-05-11T11:52:50.621Z,72
2019-05-11T11:54:50.610Z,70
2019-05-11T11:56:49.803Z,69
2019-05-11T11:58:50.763Z,70
2019-05-11T12:00:50.763Z,67
2019-05-11T12:02:49.831Z,67
2019-05-11T12:04:50.515Z,67
2019-05-11T12:06:50.601Z,67
2019-05-11T12:08:50.582Z,69.2
2019-05-11T12:10:50.646Z,70.8
2019-05-11T12:12:49.770Z,67.0
2019-05-11T12:14:49.798Z,66.0
2019-05-11T12:17:11.382Z,64.9
2019-05-11T12:18:50.181Z,60.4
2019-05-11T12:20:50.197Z,60.1
2019-05-11T12:22:50.214Z,58.3
2019-05-11T12:24:50.220Z,57.6
2019-05-11T12:26:50.299Z,57.6
2019-05-11T12:28:50.381Z,56.9
2019-05-11T12:30:50.465Z,56.4
2019-05-11T12:32:50.444Z,55.6
2019-05-11T12:34:50.739Z,56.1
2019-05-11T12:36:49.854Z,56.9
2019-05-11T12:38:49.895Z,57.1
2019-05-11T12:40:49.937Z,58.0
2019-05-11T12:42:49.919Z,57.7
2019-05-11T12:44:50.019Z,57.2
2019-05-11T12:46:50.147Z,56.9
2019-05-11T12:48:50.211Z,55.5
2019-05-11T12:50:50.292Z,54.1
2019-05-11T12:52:50.384Z,54.1
2019-05-11T12:54:50.374Z,54.9
2019-05-11T12:56:50.583Z,55.0
2019-05-11T12:58:50.525Z,55.0
2019-05-11T13:00:50.553Z,54.6
2019-05-11T13:02:50.539Z,53.1
2019-05-11T13:04:49.798Z,52.0
2019-05-11T13:06:49.867Z,51.4
2019-05-11T13:08:49.882Z,49.7
2019-05-11T13:10:50.017Z,47.3
2019-05-11T13:12:50.004Z,50
2019-05-11T13:14:50.062Z,50
2019-05-11T13:16:50.092Z,50
2019-05-11T13:18:50.118Z,50
2019-05-11T13:20:50.132Z,50.0
2019-05-11T13:22:50.161Z,49.7
2019-05-11T13:24:50.209Z,49.2
2019-05-11T13:26:50.308Z,51
2019-05-11T13:28:50.330Z,51
2019-05-11T13:30:50.251Z,51
2019-05-11T13:32:50.354Z,47.8
2019-05-11T13:34:49.771Z,47.7
2019-05-11T13:36:49.900Z,48.0
2019-05-11T13:38:49.947Z,48.8
2019-05-11T13:40:49.941Z,49.6
2019-05-11T13:42:50.040Z,49.6
2019-05-11T13:44:49.949Z,49.2
2019-05-11T13:46:50.185Z,48.6
2019-05-11T13:48:50.237Z,50.0
2019-05-11T13:50:50.297Z,50.6
2019-05-11T13:52:50.298Z,51.4
2019-05-11T13:54:50.458Z,51.6
2019-05-11T13:56:50.598Z,52.5
2019-05-11T13:58:50.673Z,53.4
2019-05-11T14:00:49.810Z,54.7
2019-05-11T14:02:49.944Z,51.9
2019-05-11T14:04:50.623Z,53.2
2019-05-11T14:06:49.770Z,53.0
2019-05-11T14:08:50.055Z,52.2
2019-05-11T14:10:50.128Z,51.9
2019-05-11T14:12:50.103Z,51.8
2019-05-11T14:14:50.431Z,51.9
2019-05-11T14:16:50.650Z,52.1
2019-05-11T14:18:50.688Z,53.5
2019-05-11T14:20:50.873Z,52.4
2019-05-11T14:22:49.964Z,52.5
2019-05-11T14:24:50.009Z,52.2
2019-05-11T14:26:50.103Z,53.3
2019-05-11T14:28:50.274Z,53.7
2019-05-11T14:30:50.384Z,54.6
2019-05-11T14:32:50.644Z,52.8
2019-05-11T14:34:50.051Z,52.9
2019-05-11T14:36:50.196Z,53.2
2019-05-11T14:38:50.313Z,53.9
2019-05-11T14:40:50.399Z,55.1
2019-05-11T14:42:50.504Z,55.8
2019-05-11T14:44:50.638Z,55.6
2019-05-11T14:46:50.746Z,55.4
2019-05-11T14:48:50.766Z,55.4
2019-05-11T14:50:49.860Z,57.7
2019-05-11T14:52:49.999Z,60.0
2019-05-11T14:54:50.004Z,59.5
2019-05-11T14:56:50.106Z,60.1
2019-05-11T14:58:50.109Z,61.0
2019-05-11T15:00:50.117Z,61.0
2019-05-11T15:02:50.564Z,60.4
2019-05-11T15:04:50.542Z,59.2
2019-05-11T15:06:50.761Z,59.3
2019-05-11T15:08:49.951Z,59.6
2019-05-11T15:10:49.887Z,59.6
2019-05-11T15:12:50.040Z,60.0
2019-05-11T15:14:50.099Z,61.2
2019-05-11T15:16:50.318Z,60.5
2019-05-11T15:18:50.330Z,60.7
2019-05-11T15:20:50.414Z,61.4
2019-05-11T15:22:50.430Z,60.1
2019-05-11T15:24:50.516Z,60.5
2019-05-11T15:26:50.606Z,60.9
2019-05-11T15:28:50.650Z,61.6
2019-05-11T15:30:50.683Z,61.4
2019-05-11T15:32:50.786Z,62.3
2019-05-11T15:34:50.478Z,62.6
2019-05-11T15:36:50.616Z,62.8
2019-05-11T15:38:50.628Z,63.4
2019-05-11T15:40:50.667Z,64.3
2019-05-11T15:42:50.686Z,64.9
2019-05-11T15:44:50.750Z,65.1
2019-05-11T15:46:49.972Z,65.0
2019-05-11T15:49:03.810Z,65.3
2019-05-11T15:50:49.970Z,65.9
2019-05-11T15:52:49.961Z,66.0
2019-05-11T15:54:50.026Z,66.5
2019-05-11T15:56:50.135Z,67.0
2019-05-11T15:58:50.204Z,67.4
2019-05-11T16:00:50.175Z,68.4
2019-05-11T16:02:50.225Z,68.1
2019-05-11T16:04:50.509Z,69.2
2019-05-11T16:06:50.689Z,68.8
2019-05-11T16:08:50.728Z,69.5
2019-05-11T16:10:50.795Z,69.3
2019-05-11T16:12:50.711Z,69.7
2019-05-11T16:14:50.722Z,69.9
2019-05-11T16:16:50.051Z,70.7
2019-05-11T16:18:51.145Z,71.2
2019-05-11T16:20:50.844Z,71.1
2019-05-11T16:22:49.817Z,71.9
2019-05-11T16:24:49.822Z,72.3
2019-05-11T16:26:50.137Z,73.0
2019-05-11T16:28:50.205Z,73.3
2019-05-11T16:30:50.207Z,73.7
2019-05-11T16:32:50.251Z,74.5
2019-05-11T16:34:50.649Z,75.1
2019-05-11T16:36:49.880Z,75.6
2019-05-11T16:38:49.947Z,75.7
2019-05-11T16:40:49.944Z,76.0
2019-05-11T16:42:49.928Z,76.1
2019-05-11T16:44:49.898Z,75.9
2019-05-11T16:46:51.476Z,76.0
2019-05-11T16:48:50.430Z,76.0
2019-05-11T16:50:50.504Z,75.7
2019-05-11T16:52:50.541Z,75.5
2019-05-11T16:54:50.622Z,75.7
2019-05-11T16:56:50.769Z,76.1
2019-05-11T16:58:50.769Z,76.5
2019-05-11T17:00:49.813Z,77.0
2019-05-11T17:02:49.887Z,77.2
2019-05-11T17:04:50.430Z,76.9
2019-05-11T17:06:50.459Z,78.8
2019-05-11T17:08:50.521Z,77.0
2019-05-11T17:10:53.756Z,77.1
2019-05-11T17:12:50.663Z,77.1
2019-05-11T17:14:50.753Z,77.1
2019-05-11T17:16:49.948Z,77.3
2019-05-11T17:18:49.973Z,77.6
2019-05-11T17:20:50.109Z,78.5
2019-05-11T17:22:54.368Z,78.1
2019-05-11T17:24:50.445Z,79.6
2019-05-11T17:26:50.500Z,79.1
2019-05-11T17:28:50.546Z,79.5
2019-05-11T17:30:50.626Z,80.7
2019-05-11T17:32:50.646Z,79.9
2019-05-11T17:34:50.215Z,80.4
2019-05-11T17:36:50.357Z,80.1
2019-05-11T17:38:50.449Z,80.7
2019-05-11T17:40:50.479Z,80.9
2019-05-11T17:42:54.517Z,81.9
2019-05-11T17:44:50.614Z,81.7
2019-05-11T17:46:50.765Z,82.5
2019-05-11T17:48:50.690Z,82.9
2019-05-11T17:50:50.602Z,82.7
2019-05-11T17:52:50.688Z,81.8
2019-05-11T17:54:50.742Z,82.0
2019-05-11T17:56:50.101Z,81.1
2019-05-11T17:58:50.077Z,80.9
2019-05-11T18:00:50.119Z,80.7
2019-05-11T18:02:50.175Z,80.7
2019-05-11T18:04:50.478Z,79.4
2019-05-11T18:06:50.607Z,79.4
2019-05-11T18:08:50.569Z,79.5
2019-05-11T18:10:50.525Z,79.8
2019-05-11T18:12:50.634Z,80.6
2019-05-11T18:14:50.620Z,80.5
2019-05-11T18:16:50.682Z,80.6
2019-05-11T18:18:50.640Z,80.1
2019-05-11T18:20:50.732Z,80.2
2019-05-11T18:22:50.723Z,80.2
2019-05-11T18:24:49.860Z,80.3
2019-05-11T18:26:50.166Z,81.3
2019-05-11T18:28:50.207Z,81.1
2019-05-11T18:30:50.276Z,80.9
2019-05-11T18:32:50.373Z,81.3
2019-05-11T18:34:49.838Z,81.3
2019-05-11T18:36:50.133Z,82.5
2019-05-11T18:38:50.092Z,82.2
2019-05-11T18:40:50.192Z,82.2
2019-05-11T18:42:50.258Z,81.9
2019-05-11T18:44:50.247Z,81.9
2019-05-11T18:46:50.324Z,82.2
2019-05-11T18:48:50.240Z,82.3
2019-05-11T18:50:50.291Z,82.7
2019-05-11T18:52:50.314Z,82.8
2019-05-11T18:54:50.400Z,83.1
2019-05-11T18:56:50.616Z,83.1
2019-05-11T18:58:50.639Z,83.7
2019-05-11T19:00:50.654Z,83.6
2019-05-11T19:02:50.600Z,83.9
2019-05-11T19:04:49.928Z,84.3
2019-05-11T19:06:50.050Z,84.9
2019-05-11T19:08:50.042Z,85.4
2019-05-11T19:10:50.040Z,85.4
2019-05-11T19:12:50.096Z,85.9
2019-05-11T19:14:50.073Z,87.0
2019-05-11T19:16:50.120Z,86.4
2019-05-11T19:18:50.238Z,87.1
2019-05-11T19:20:50.299Z,87.5
2019-05-11T19:22:50.370Z,87.5
2019-05-11T19:24:50.393Z,89.1
2019-05-11T19:26:51.863Z,89.8
2019-05-11T19:28:49.885Z,90.3
2019-05-11T19:30:49.796Z,90.6
2019-05-11T19:32:49.861Z,91.1
2019-05-11T19:34:50.214Z,91.2
2019-05-11T19:36:50.446Z,91.7
2019-05-11T19:38:50.456Z,92.1
2019-05-11T19:40:50.466Z,92.2
2019-05-11T19:42:54.943Z,92.5
2019-05-11T19:44:49.926Z,92.8
2019-05-11T19:46:49.988Z,93.2
2019-05-11T19:48:50.014Z,94.7
2019-05-11T19:51:12.232Z,95.2
2019-05-11T19:52:50.018Z,95.9
2019-05-11T19:54:50.093Z,96.5
2019-05-11T19:56:52.797Z,97.2
2019-05-11T19:58:49.843Z,98.0
2019-05-11T20:00:50.782Z,98.4
2019-05-11T20:02:49.888Z,98.8
2019-05-11T20:04:50.185Z,99.8
2019-05-11T20:06:50.451Z,100.0
2019-05-11T20:08:50.487Z,100.0
2019-05-11T20:10:50.484Z,100.0
2019-05-11T20:12:50.460Z,99.4
2019-05-11T20:14:50.511Z,98.1
2019-05-11T20:16:50.639Z,98.2
2019-05-11T20:18:50.603Z,98.0
2019-05-11T20:20:50.635Z,97.7
2019-05-11T20:22:50.675Z,97.7
2019-05-11T20:24:50.711Z,99.5
2019-05-11T20:26:49.968Z,99.9
2019-05-11T20:28:50.084Z,98.7
2019-05-11T20:30:50.132Z,99.0
2019-05-11T20:32:50.262Z,99.9
2019-05-11T20:34:50.783Z,99.9
2019-05-11T20:36:49.922Z,100.0
2019-05-11T20:38:49.934Z,100.0
2019-05-11T20:40:50.009Z,100.0
2019-05-11T20:42:50.057Z,100.0
2019-05-11T20:44:50.101Z,100.0
2019-05-11T20:46:50.235Z,100.0
2019-05-11T20:48:50.390Z,100.0
2019-05-11T20:50:50.467Z,100.0
2019-05-11T20:52:50.477Z,100.0
2019-05-11T20:54:50.477Z,100.0
2019-05-11T20:56:50.746Z,100.0
2019-05-11T20:58:50.768Z,100.0
2019-05-11T21:00:49.996Z,100.0
2019-05-11T21:02:49.966Z,100.0
2019-05-11T21:04:50.378Z,100.0
2019-05-11T21:06:50.544Z,100.0
2019-05-11T21:08:50.515Z,100.0
2019-05-11T21:10:50.585Z,100.0
2019-05-11T21:12:50.600Z,100.0
2019-05-11T21:14:50.689Z,100.0
2019-05-11T21:16:49.940Z,100.0
2019-05-11T21:18:50.035Z,100.0
2019-05-11T21:20:50.021Z,100.0
2019-05-11T21:22:50.046Z,100.0
2019-05-11T21:24:50.116Z,100.0
2019-05-11T21:26:50.346Z,100.0
2019-05-11T21:28:50.333Z,100.0
2019-05-11T21:30:50.435Z,100.0
2019-05-11T21:32:50.427Z,100.0
2019-05-11T21:34:50.829Z,100.0
2019-05-11T21:36:50.054Z,100.0
2019-05-11T21:38:50.060Z,100.0
2019-05-11T21:40:50.159Z,100.0
2019-05-11T21:42:50.187Z,100.0
2019-05-11T21:44:50.175Z,100.0
2019-05-11T21:46:50.318Z,100.0
2019-05-11T21:48:50.332Z,100.0
2019-05-11T21:50:50.363Z,100.0
2019-05-11T21:52:52.491Z,100.0
2019-05-11T21:54:50.422Z,100.0
2019-05-11T21:56:50.644Z,100.0
2019-05-11T21:58:49.964Z,100.0
2019-05-11T22:00:50.104Z,100.0
2019-05-11T22:02:50.199Z,100.0
2019-05-11T22:04:50.608Z,100.0
2019-05-11T22:06:49.895Z,100.0
2019-05-11T22:08:51.291Z,100.0
2019-05-11T22:10:50.590Z,100.0
2019-05-11T22:12:50.706Z,100.0
2019-05-11T22:14:50.792Z,100.0
2019-05-11T22:16:49.981Z,100.0
2019-05-11T22:18:50.110Z,100.0
2019-05-11T22:20:50.169Z,100.0
2019-05-11T22:22:50.344Z,100.0
2019-05-11T22:24:50.535Z,100.0
2019-05-11T22:26:49.827Z,100.0
2019-05-11T22:28:50.056Z,100.0
2019-05-11T22:30:50.190Z,100.0
2019-05-11T22:32:50.282Z,100.0
2019-05-11T22:34:50.650Z,100.0
2019-05-11T22:36:49.898Z,100.0
2019-05-11T22:38:49.875Z,100.0
2019-05-11T22:40:49.961Z,100.0
2019-05-11T22:42:50.192Z,100.0
2019-05-11T22:44:50.233Z,100.0
2019-05-11T22:46:50.458Z,100.0
2019-05-11T22:48:50.623Z,100.0
2019-05-11T22:50:51.117Z,100.0
2019-05-11T22:52:50.299Z,100.0
2019-05-11T22:54:50.368Z,100.0
2019-05-11T22:56:50.663Z,100.0
2019-05-11T22:58:50.415Z,100.0
2019-05-11T23:00:50.608Z,100.0
2019-05-11T23:02:49.873Z,100.0
2019-05-11T23:04:50.297Z,100.0
2019-05-11T23:06:50.524Z,100.0
2019-05-11T23:08:54.575Z,100.0
2019-05-11T23:10:50.566Z,100.0
2019-05-11T23:12:50.641Z,100.0
2019-05-11T23:14:49.784Z,100.0
2019-05-11T23:16:50.410Z,100.0
2019-05-11T23:18:50.489Z,100.0
2019-05-11T23:20:50.616Z,100.0
2019-05-11T23:23:01.981Z,100.0
2019-05-11T23:24:50.756Z,100.0
2019-05-11T23:26:49.886Z,100.0
2019-05-11T23:28:50.076Z,100.0
2019-05-11T23:30:50.264Z,100.0
2019-05-11T23:32:50.395Z,100.0
2019-05-11T23:34:49.804Z,100.0
2019-05-11T23:36:50.231Z,100.0
2019-05-11T23:38:50.383Z,100.0
2019-05-11T23:40:50.493Z,100.0
2019-05-11T23:42:50.497Z,100.0
2019-05-11T23:44:50.610Z,100.0
2019-05-11T23:46:49.933Z,100.0
2019-05-11T23:48:50.021Z,100.0
2019-05-11T23:50:50.073Z,100.0
2019-05-11T23:53:10.682Z,100.0
2019-05-11T23:54:50.482Z,100.0
2019-05-11T23:56:50.729Z,100.0
2019-05-11T23:58:49.881Z,100.0
